createdAt,value
2022-11-02T00:01:17.851Z,101290.22
2022-11-02T00:03:45.803Z,101287.50
2022-11-02T00:06:13.776Z,101289.28
2022-11-02T00:08:41.985Z,101285.41
2022-11-02T00:11:09.949Z,101287.19
2022-11-02T00:13:37.884Z,101271.94
2022-11-02T00:16:10.190Z,101277.38
2022-11-02T00:18:39.001Z,101281.09
2022-11-02T00:21:07.394Z,101284.16
2022-11-02T00:23:35.640Z,101287.69
2022-11-02T00:26:04.282Z,101286.22
2022-11-02T00:28:32.489Z,101275.78
2022-11-02T00:31:00.478Z,101277.56
2022-11-02T00:33:29.854Z,101283.19
2022-11-02T00:35:57.958Z,101275.50
2022-11-02T00:38:25.918Z,101283.19
2022-11-02T00:40:53.894Z,101275.50
2022-11-02T00:43:21.763Z,101277.88
2022-11-02T00:45:49.619Z,101273.22
2022-11-02T00:48:17.602Z,101276.09
2022-11-02T00:50:46.849Z,101275.78
2022-11-02T00:53:14.737Z,101280.63
2022-11-02T00:55:42.637Z,101281.56
2022-11-02T00:58:10.549Z,101280.09
2022-11-02T01:00:38.646Z,101277.50
2022-11-02T01:03:06.571Z,101270.94
2022-11-02T01:05:34.487Z,101279.59
2022-11-02T01:08:04.110Z,101274.28
2022-11-02T01:10:32.145Z,101275.69
2022-11-02T01:13:00.083Z,101284.69
2022-11-02T01:15:27.994Z,101280.03
2022-11-02T01:17:55.990Z,101286.94
2022-11-02T01:20:24.252Z,101278.28
2022-11-02T01:22:52.220Z,101279.22
2022-11-02T01:25:21.507Z,101278.59
2022-11-02T01:27:49.421Z,101286.09
2022-11-02T01:30:17.626Z,101289.81
2022-11-02T01:32:45.734Z,101288.66
2022-11-02T01:35:13.734Z,101285.47
2022-11-02T01:37:41.552Z,101272.44
2022-11-02T01:40:10.682Z,101291.09
2022-11-02T01:42:40.483Z,101281.31
2022-11-02T01:45:09.080Z,101286.94
2022-11-02T01:47:39.749Z,101286.16
2022-11-02T01:50:11.532Z,101288.41
2022-11-02T01:52:41.469Z,101288.41
2022-11-02T01:55:14.987Z,101296.91
2022-11-02T01:57:49.366Z,101299.34
2022-11-02T02:00:19.897Z,101295.81
2022-11-02T02:02:53.053Z,101293.09
2022-11-02T02:05:23.350Z,101294.69
2022-11-02T02:07:52.438Z,101296.91
2022-11-02T02:10:20.925Z,101299.19
2022-11-02T02:12:51.487Z,101304.66
2022-11-02T02:15:19.566Z,101291.31
2022-11-02T02:17:54.139Z,101292.78
2022-11-02T02:20:40.957Z,101291.84
2022-11-02T02:23:54.713Z,101294.72
2022-11-02T02:26:49.010Z,101287.66
2022-11-02T02:29:23.211Z,101285.28
2022-11-02T02:31:57.496Z,101280.28
2022-11-02T02:34:30.346Z,101287.81
2022-11-02T02:37:02.746Z,101273.22
2022-11-02T02:39:37.841Z,101283.00
2022-11-02T02:42:14.167Z,101282.56
2022-11-02T02:44:48.225Z,101281.41
2022-11-02T02:47:21.502Z,101280.94
2022-11-02T02:49:56.686Z,101291.03
2022-11-02T02:52:28.180Z,101286.41
2022-11-02T02:55:00.254Z,101283.97
2022-11-02T02:57:32.704Z,101289.78
2022-11-02T03:00:02.172Z,101299.09
2022-11-02T03:02:33.982Z,101293.31
2022-11-02T03:05:02.083Z,101287.22
2022-11-02T03:07:34.177Z,101299.41
2022-11-02T03:10:11.590Z,101292.16
2022-11-02T03:12:46.606Z,101305.50
2022-11-02T03:15:22.342Z,101304.06
2022-11-02T03:18:03.473Z,101309.97
2022-11-02T03:20:40.856Z,101311.28
2022-11-02T03:23:17.730Z,101306.63
2022-11-02T03:25:54.581Z,101313.69
2022-11-02T03:28:31.164Z,101323.81
2022-11-02T03:31:07.968Z,101321.53
2022-11-02T03:33:38.706Z,101324.91
2022-11-02T03:36:10.719Z,101317.84
2022-11-02T03:38:45.565Z,101332.63
2022-11-02T03:41:14.767Z,101338.09
2022-11-02T03:43:44.016Z,101325.56
2022-11-02T03:46:15.710Z,101332.94
2022-11-02T03:48:46.609Z,101339.38
2022-11-02T03:51:19.244Z,101345.97
2022-11-02T03:53:52.612Z,101339.72
2022-11-02T03:56:27.114Z,101352.41
2022-11-02T03:58:55.043Z,101352.69
2022-11-02T04:01:25.957Z,101360.44
2022-11-02T04:03:54.078Z,101362.53
2022-11-02T04:06:23.525Z,101363.31
2022-11-02T04:08:51.458Z,101367.47
2022-11-02T04:11:36.999Z,101370.06
2022-11-02T04:14:22.354Z,101371.81
2022-11-02T04:17:11.820Z,101369.44
2022-11-02T04:19:38.643Z,101370.72
2022-11-02T04:22:23.778Z,101371.38
2022-11-02T04:25:08.936Z,101382.28
2022-11-02T04:27:37.310Z,101379.88
2022-11-02T04:30:06.176Z,101371.53
2022-11-02T04:32:58.271Z,101380.38
2022-11-02T04:35:26.210Z,101393.22
2022-11-02T04:38:11.468Z,101401.41
2022-11-02T04:40:39.640Z,101397.06
2022-11-02T04:43:07.654Z,101412.47
2022-11-02T04:45:35.927Z,101408.63
2022-11-02T04:48:07.345Z,101409.75
2022-11-02T04:50:36.023Z,101415.53
2022-11-02T04:53:07.151Z,101422.91
2022-11-02T04:55:35.850Z,101419.69
2022-11-02T04:58:04.335Z,101423.06
2022-11-02T05:00:34.936Z,101421.13
2022-11-02T05:03:04.690Z,101410.53
2022-11-02T05:05:36.118Z,101424.19
2022-11-02T05:08:04.365Z,101433.50
2022-11-02T05:10:32.562Z,101437.34
2022-11-02T05:13:01.129Z,101430.91
2022-11-02T05:15:29.016Z,101444.22
2022-11-02T05:17:57.273Z,101438.78
2022-11-02T05:20:25.528Z,101441.19
2022-11-02T05:22:54.824Z,101436.84
2022-11-02T05:25:22.796Z,101434.13
2022-11-02T05:27:50.737Z,101434.91
2022-11-02T05:30:18.942Z,101441.97
2022-11-02T05:32:46.838Z,101440.56
2022-11-02T05:35:14.850Z,101446.00
2022-11-02T05:37:43.928Z,101445.22
2022-11-02T05:40:14.198Z,101451.47
2022-11-02T05:42:42.199Z,101451.47
2022-11-02T05:45:10.945Z,101452.94
2022-11-02T05:47:38.874Z,101459.50
2022-11-02T05:50:07.353Z,101469.13
2022-11-02T05:52:36.387Z,101463.66
2022-11-02T05:55:04.678Z,101465.13
2022-11-02T05:57:33.949Z,101478.44
2022-11-02T06:00:01.886Z,101472.84
2022-11-02T06:02:29.764Z,101479.88
2022-11-02T06:04:58.348Z,101484.69
2022-11-02T06:07:26.388Z,101482.28
2022-11-02T06:09:54.238Z,101503.78
2022-11-02T06:12:22.292Z,101497.88
2022-11-02T06:14:51.625Z,101521.16
2022-11-02T06:17:19.426Z,101513.25
2022-11-02T06:19:47.443Z,101521.75
2022-11-02T06:22:15.461Z,101528.19
2022-11-02T06:24:43.399Z,101535.06
2022-11-02T06:27:11.298Z,101534.59
2022-11-02T06:29:39.231Z,101538.44
2022-11-02T06:32:08.628Z,101543.56
2022-11-02T06:34:36.676Z,101562.31
2022-11-02T06:37:04.642Z,101547.41
2022-11-02T06:39:32.667Z,101552.22
2022-11-02T06:42:00.644Z,101549.63
2022-11-02T06:44:28.753Z,101565.38
2022-11-02T06:46:56.722Z,101576.28
2022-11-02T06:49:26.157Z,101580.44
2022-11-02T06:51:54.406Z,101578.53
2022-11-02T06:54:22.367Z,101581.56
2022-11-02T06:56:50.370Z,101582.34
2022-11-02T06:59:18.302Z,101596.50
2022-11-02T07:01:46.599Z,101612.53
2022-11-02T07:04:14.772Z,101613.00
2022-11-02T07:06:44.070Z,101621.34
2022-11-02T07:09:11.932Z,101618.94
2022-11-02T07:11:39.758Z,101628.88
2022-11-02T07:14:07.830Z,101622.19
2022-11-02T07:16:35.713Z,101633.88
2022-11-02T07:19:04.366Z,101649.25
2022-11-02T07:21:32.333Z,101649.56
2022-11-02T07:24:01.670Z,101657.09
2022-11-02T07:26:29.759Z,101663.22
2022-11-02T07:28:59.429Z,101667.06
2022-11-02T07:31:27.487Z,101673.31
2022-11-02T07:33:55.495Z,101674.72
2022-11-02T07:36:23.297Z,101681.19
2022-11-02T07:38:52.607Z,101676.09
2022-11-02T07:41:23.311Z,101692.34
2022-11-02T07:43:51.550Z,101695.44
2022-11-02T07:46:19.715Z,101699.00
2022-11-02T07:48:48.667Z,101704.44
2022-11-02T07:51:17.055Z,101707.66
2022-11-02T07:53:45.055Z,101715.50
2022-11-02T07:56:13.122Z,101714.88
2022-11-02T07:58:42.505Z,101722.44
2022-11-02T08:01:10.377Z,101713.91
2022-11-02T08:03:38.441Z,101742.00
2022-11-02T08:06:07.199Z,101731.63
2022-11-02T08:08:35.194Z,101733.53
2022-11-02T08:11:08.428Z,101734.03
2022-11-02T08:13:37.820Z,101739.34
2022-11-02T08:16:07.723Z,101740.16
2022-11-02T08:18:35.694Z,101745.16
2022-11-02T08:21:04.339Z,101749.81
2022-11-02T08:23:32.186Z,101747.59
2022-11-02T08:26:01.212Z,101754.53
2022-11-02T08:28:31.688Z,101757.25
2022-11-02T08:30:59.897Z,101749.53
2022-11-02T08:33:29.563Z,101740.22
2022-11-02T08:36:08.314Z,101752.41
2022-11-02T08:38:36.249Z,101757.25
2022-11-02T08:41:04.595Z,101766.41
2022-11-02T08:43:32.854Z,101765.16
2022-11-02T08:46:14.744Z,101779.59
2022-11-02T08:48:45.365Z,101775.75
2022-11-02T08:51:13.429Z,101766.44
2022-11-02T08:53:42.361Z,101781.59
2022-11-02T08:56:11.659Z,101783.41
2022-11-02T08:58:39.630Z,101782.28
2022-11-02T09:01:07.609Z,101778.41
2022-11-02T09:03:35.591Z,101783.41
2022-11-02T09:06:05.335Z,101778.56
2022-11-02T09:08:33.414Z,101781.91
2022-11-02T09:11:02.803Z,101790.13
2022-11-02T09:13:31.027Z,101787.59
2022-11-02T09:16:00.545Z,101787.91
2022-11-02T09:18:28.936Z,101796.28
2022-11-02T09:20:57.165Z,101792.94
2022-11-02T09:23:26.485Z,101793.53
2022-11-02T09:25:54.773Z,101792.75
2022-11-02T09:28:22.900Z,101797.41
2022-11-02T09:30:50.991Z,101809.25
2022-11-02T09:33:19.320Z,101822.63
2022-11-02T09:35:49.361Z,101818.13
2022-11-02T09:38:19.355Z,101809.16
2022-11-02T09:40:56.034Z,101808.53
2022-11-02T09:43:33.102Z,101806.28
2022-11-02T09:46:06.230Z,101819.00
2022-11-02T09:48:37.512Z,101817.72
2022-11-02T09:51:09.988Z,101821.78
2022-11-02T09:53:49.919Z,101810.34
2022-11-02T09:56:21.185Z,101813.56
2022-11-02T09:58:52.588Z,101809.22
2022-11-02T10:01:46.424Z,101804.91
2022-11-02T10:04:31.139Z,101807.31
2022-11-02T10:07:08.119Z,101817.47
2022-11-02T10:09:46.909Z,101818.13
2022-11-02T10:12:21.460Z,101824.59
2022-11-02T10:14:58.272Z,101826.06
2022-11-02T10:17:28.399Z,101837.00
2022-11-02T10:19:58.617Z,101834.59
2022-11-02T10:22:30.031Z,101844.56
2022-11-02T10:24:59.604Z,101830.13
2022-11-02T10:27:33.339Z,101834.47
2022-11-02T10:30:04.934Z,101838.03
2022-11-02T10:32:34.236Z,101840.59
2022-11-02T10:35:25.382Z,101832.72
2022-11-02T10:38:13.514Z,101833.34
2022-11-02T10:40:56.992Z,101841.06
2022-11-02T10:43:52.146Z,101845.72
2022-11-02T10:46:36.058Z,101847.66
2022-11-02T10:49:12.330Z,101848.13
2022-11-02T10:51:40.445Z,101847.16
2022-11-02T10:54:15.085Z,101864.38
2022-11-02T10:56:47.133Z,101848.91
2022-11-02T10:59:17.668Z,101853.25
2022-11-02T11:02:04.312Z,101872.91
2022-11-02T11:04:33.518Z,101867.13
2022-11-02T11:07:06.546Z,101867.47
2022-11-02T11:09:42.895Z,101863.72
2022-11-02T11:12:22.476Z,101863.56
2022-11-02T11:20:36.694Z,101873.59
2022-11-02T11:23:20.770Z,101877.28
2022-11-02T11:25:56.733Z,101869.56
2022-11-02T11:28:27.548Z,101870.84
2022-11-02T11:31:15.463Z,101872.47
2022-11-02T11:33:49.571Z,101870.19
2022-11-02T11:36:28.221Z,101868.59
2022-11-02T11:38:59.362Z,101864.25
2022-11-02T11:41:27.775Z,101859.25
2022-11-02T11:43:56.235Z,101857.63
2022-11-02T11:46:40.492Z,101867.94
2022-11-02T11:49:35.852Z,101872.13
2022-11-02T11:52:18.681Z,101867.44
2022-11-02T11:54:55.351Z,101875.38
2022-11-02T11:57:28.375Z,101867.47
2022-11-02T11:59:59.176Z,101864.72
2022-11-02T12:02:30.250Z,101864.56
2022-11-02T12:05:15.125Z,101858.94
2022-11-02T12:08:02.655Z,101862.16
2022-11-02T12:10:48.842Z,101864.41
2022-11-02T12:13:32.046Z,101860.03
2022-11-02T12:16:16.372Z,101850.53
2022-11-02T12:19:14.296Z,101845.41
2022-11-02T12:21:56.500Z,101832.50
2022-11-02T12:24:56.227Z,101829.59
2022-11-02T12:27:34.574Z,101839.72
2022-11-02T12:30:15.079Z,101838.09
2022-11-02T12:33:07.954Z,101841.00
2022-11-02T12:36:01.814Z,101833.72
2022-11-02T12:39:10.384Z,101840.78
2022-11-02T12:45:00.556Z,101837.59
2022-11-02T12:47:43.340Z,101846.78
2022-11-02T12:50:38.088Z,101834.88
2022-11-02T12:53:20.250Z,101837.31
2022-11-02T12:55:53.756Z,101841.16
2022-11-02T12:58:24.556Z,101842.09
2022-11-02T13:00:58.515Z,101830.50
2022-11-02T13:03:36.621Z,101835.31
2022-11-02T13:06:10.931Z,101851.13
2022-11-02T13:08:46.755Z,101849.50
2022-11-02T13:11:21.089Z,101831.94
2022-11-02T13:13:53.735Z,101842.06
2022-11-02T13:16:29.409Z,101836.41
2022-11-02T13:18:59.675Z,101821.75
2022-11-02T13:21:36.515Z,101811.44
2022-11-02T13:24:14.546Z,101812.75
2022-11-02T13:26:45.350Z,101818.88
2022-11-02T13:29:19.418Z,101810.69
2022-11-02T13:31:51.779Z,101818.28
2022-11-02T13:34:29.630Z,101811.84
2022-11-02T13:36:57.746Z,101809.16
2022-11-02T13:39:33.071Z,101806.72
2022-11-02T13:42:18.814Z,101804.97
2022-11-02T13:45:15.607Z,101803.50
2022-11-02T13:48:15.550Z,101805.91
2022-11-02T13:50:48.093Z,101807.69
2022-11-02T13:53:20.963Z,101809.28
2022-11-02T13:55:54.466Z,101799.94
2022-11-02T13:58:27.394Z,101803.81
2022-11-02T14:00:59.984Z,101810.25
2022-11-02T14:03:32.830Z,101783.50
2022-11-02T14:06:02.947Z,101797.38
2022-11-02T14:08:37.133Z,101798.34
2022-11-02T14:11:24.475Z,101792.56
2022-11-02T14:14:28.131Z,101793.84
2022-11-02T14:17:17.323Z,101796.91
2022-11-02T14:19:56.497Z,101789.81
2022-11-02T14:22:24.646Z,101791.38
2022-11-02T14:25:08.475Z,101789.28
2022-11-02T14:27:36.898Z,101787.19
2022-11-02T14:30:27.013Z,101784.09
2022-11-02T14:33:03.268Z,101781.53
2022-11-02T14:35:41.197Z,101778.81
2022-11-02T14:38:47.348Z,101765.34
2022-11-02T14:41:36.782Z,101775.00
2022-11-02T14:44:38.306Z,101779.31
2022-11-02T14:47:10.298Z,101771.63
2022-11-02T14:49:41.544Z,101772.56
2022-11-02T14:52:23.971Z,101763.19
2022-11-02T14:54:54.768Z,101759.19
2022-11-02T14:57:26.049Z,101768.69
2022-11-02T14:59:57.500Z,101759.31
2022-11-02T15:02:31.302Z,101757.22
2022-11-02T15:05:01.650Z,101751.91
2022-11-02T15:07:35.983Z,101759.63
2022-11-02T15:10:08.492Z,101753.03
2022-11-02T15:12:38.966Z,101748.19
2022-11-02T15:15:34.773Z,101749.50
2022-11-02T15:18:24.007Z,101742.13
2022-11-02T15:21:25.372Z,101737.78
2022-11-02T15:24:02.957Z,101729.91
2022-11-02T15:26:39.221Z,101741.66
2022-11-02T15:29:17.747Z,101737.31
2022-11-02T15:31:56.721Z,101741.38
2022-11-02T15:34:35.174Z,101737.66
2022-11-02T15:37:03.528Z,101742.19
2022-11-02T15:39:32.372Z,101738.50
2022-11-02T15:42:05.325Z,101732.25
2022-11-02T15:45:14.295Z,101738.53
2022-11-02T15:48:04.520Z,101736.44
2022-11-02T15:50:46.075Z,101736.28
2022-11-02T15:53:42.879Z,101745.00
2022-11-02T15:56:26.579Z,101737.13
2022-11-02T15:59:18.093Z,101736.78
2022-11-02T16:01:46.176Z,101727.25
2022-11-02T16:04:21.384Z,101733.41
2022-11-02T16:06:50.946Z,101737.09
2022-11-02T16:09:33.108Z,101733.56
2022-11-02T16:12:12.261Z,101729.56
2022-11-02T16:14:40.548Z,101731.31
2022-11-02T16:17:20.401Z,101730.50
2022-11-02T16:19:49.602Z,101723.44
2022-11-02T16:22:26.255Z,101731.47
2022-11-02T16:24:55.459Z,101723.13
2022-11-02T16:27:24.255Z,101724.25
2022-11-02T16:29:52.312Z,101724.88
2022-11-02T16:32:20.390Z,101719.53
2022-11-02T16:34:48.658Z,101726.31
2022-11-02T16:37:19.373Z,101722.13
2022-11-02T16:39:48.993Z,101718.72
2022-11-02T16:42:20.243Z,101720.00
2022-11-02T16:44:57.801Z,101712.13
2022-11-02T16:47:38.971Z,101720.13
2022-11-02T16:50:20.810Z,101715.94
2022-11-02T16:52:56.067Z,101723.00
2022-11-02T16:55:44.221Z,101720.44
2022-11-02T16:58:19.301Z,101719.94
2022-11-02T17:00:56.369Z,101728.13
2022-11-02T17:03:27.286Z,101732.97
2022-11-02T17:05:55.623Z,101722.03
2022-11-02T17:08:32.045Z,101720.44
2022-11-02T17:11:03.635Z,101721.41
2022-11-02T17:13:34.225Z,101717.53
2022-11-02T17:16:07.099Z,101709.19
2022-11-02T17:18:35.018Z,101710.31
2022-11-02T17:21:27.962Z,101710.31
2022-11-02T17:23:57.332Z,101712.88
2022-11-02T17:26:37.526Z,101711.25
2022-11-02T17:29:32.253Z,101704.84
2022-11-02T17:32:01.660Z,101705.31
2022-11-02T17:34:31.674Z,101710.31
2022-11-02T17:36:59.861Z,101735.16
2022-11-02T17:39:27.913Z,101732.25
2022-11-02T17:42:24.771Z,101730.66
2022-11-02T17:44:52.750Z,101723.22
2022-11-02T17:47:20.734Z,101722.88
2022-11-02T17:49:48.830Z,101724.50
2022-11-02T17:52:17.503Z,101719.81
2022-11-02T17:54:45.504Z,101725.09
2022-11-02T17:57:16.201Z,101721.69
2022-11-02T17:59:44.294Z,101720.72
2022-11-02T18:02:13.759Z,101713.47
2022-11-02T18:07:09.896Z,101712.00
2022-11-02T18:09:37.876Z,101701.84
2022-11-02T18:12:06.117Z,101709.06
2022-11-02T18:14:36.723Z,101709.66
2022-11-02T18:17:04.770Z,101709.81
2022-11-02T18:19:33.444Z,101695.19
2022-11-02T18:22:01.621Z,101705.63
2022-11-02T18:24:29.608Z,101699.16
2022-11-02T18:26:57.509Z,101706.84
2022-11-02T18:29:25.550Z,101691.09
2022-11-02T18:31:55.103Z,101694.25
2022-11-02T18:34:23.235Z,101691.25
2022-11-02T18:36:51.243Z,101684.66
2022-11-02T18:39:19.468Z,101686.28
2022-11-02T18:41:47.921Z,101690.13
2022-11-02T18:44:15.970Z,101691.75
2022-11-02T18:46:44.236Z,101690.63
2022-11-02T18:49:14.620Z,101690.63
2022-11-02T18:51:43.735Z,101693.19
2022-11-02T18:54:12.098Z,101692.97
2022-11-02T18:56:40.081Z,101684.31
2022-11-02T18:59:08.120Z,101686.56
2022-11-02T19:01:36.239Z,101686.56
2022-11-02T19:04:04.908Z,101683.31
2022-11-02T19:06:52.970Z,101688.28
2022-11-02T19:09:23.825Z,101685.34
2022-11-02T19:11:56.917Z,101681.34
2022-11-02T19:14:25.467Z,101673.16
2022-11-02T19:16:53.444Z,101668.63
2022-11-02T19:19:21.380Z,101668.94
2022-11-02T19:21:50.818Z,101670.06
2022-11-02T19:24:20.984Z,101664.59
2022-11-02T19:26:49.380Z,101674.72
2022-11-02T19:29:17.809Z,101657.88
2022-11-02T19:31:47.904Z,101655.75
2022-11-02T19:34:15.967Z,101657.97
2022-11-02T19:36:44.119Z,101649.00
2022-11-02T19:39:13.565Z,101646.44
2022-11-02T19:41:41.583Z,101639.59
2022-11-02T19:44:09.597Z,101629.66
2022-11-02T19:46:37.631Z,101620.38
2022-11-02T19:49:05.623Z,101616.34
2022-11-02T19:51:33.706Z,101617.94
2022-11-02T19:54:03.811Z,101618.75
2022-11-02T19:56:35.087Z,101611.09
2022-11-02T19:59:03.979Z,101611.25
2022-11-02T20:01:34.180Z,101613.16
2022-11-02T20:04:02.501Z,101608.19
2022-11-02T20:06:34.161Z,101603.38
2022-11-02T20:09:04.424Z,101598.94
2022-11-02T20:11:36.053Z,101590.25
2022-11-02T20:14:05.301Z,101584.78
2022-11-02T20:16:33.377Z,101589.91
2022-11-02T20:19:01.372Z,101584.78
2022-11-02T20:21:34.578Z,101589.63
2022-11-02T20:24:05.582Z,101582.56
2022-11-02T20:26:37.432Z,101584.78
2022-11-02T20:29:07.026Z,101580.94
2022-11-02T20:31:37.770Z,101579.34
2022-11-02T20:34:08.181Z,101571.78
2022-11-02T20:36:36.293Z,101572.13
2022-11-02T20:39:07.506Z,101570.78
2022-11-02T20:41:37.512Z,101565.50
2022-11-02T20:44:05.923Z,101557.63
2022-11-02T20:46:39.657Z,101558.25
2022-11-02T20:49:20.444Z,101558.06
2022-11-02T20:51:49.609Z,101557.69
2022-11-02T20:54:19.838Z,101551.69
2022-11-02T20:56:49.925Z,101530.50
2022-11-02T20:59:18.565Z,101546.66
2022-11-02T21:01:47.386Z,101542.03
2022-11-02T21:04:20.326Z,101544.25
2022-11-02T21:06:49.721Z,101541.84
2022-11-02T21:09:17.682Z,101532.34
2022-11-02T21:12:03.280Z,101535.09
2022-11-02T21:14:32.623Z,101533.97
2022-11-02T21:17:02.079Z,101533.16
2022-11-02T21:19:30.167Z,101528.03
2022-11-02T21:22:00.025Z,101528.84
2022-11-02T21:24:28.577Z,101521.78
2022-11-02T21:26:56.777Z,101522.09
2022-11-02T21:29:25.158Z,101520.50
2022-11-02T21:31:54.441Z,101516.97
2022-11-02T21:34:22.314Z,101508.78
2022-11-02T21:36:50.215Z,101517.44
2022-11-02T21:39:18.197Z,101514.25
2022-11-02T21:41:46.096Z,101514.03
2022-11-02T21:44:14.092Z,101510.19
2022-11-02T21:46:42.125Z,101515.47
2022-11-02T21:49:12.924Z,101506.19
2022-11-02T21:51:40.785Z,101503.47
2022-11-02T21:54:08.837Z,101501.50
2022-11-02T21:56:37.080Z,101505.19
2022-11-02T21:59:05.880Z,101503.59
2022-11-02T22:01:47.099Z,101499.13
2022-11-02T22:04:21.372Z,101500.25
2022-11-02T22:06:49.376Z,101497.03
2022-11-02T22:09:17.349Z,101495.41
2022-11-02T22:11:45.484Z,101486.28
2022-11-02T22:14:13.905Z,101478.59
2022-11-02T22:16:43.422Z,101481.78
2022-11-02T22:19:13.150Z,101475.75
2022-11-02T22:21:44.988Z,101466.81
2022-11-02T22:24:13.485Z,101461.22
2022-11-02T22:26:41.965Z,101456.28
2022-11-02T22:29:09.998Z,101450.84
2022-11-02T22:31:39.622Z,101441.53
2022-11-02T22:34:09.225Z,101447.16
2022-11-02T22:36:38.550Z,101445.75
2022-11-02T22:39:08.559Z,101440.44
2022-11-02T22:41:37.870Z,101434.19
2022-11-02T22:44:07.672Z,101434.06
2022-11-02T22:46:37.805Z,101436.19
2022-11-02T22:49:06.820Z,101423.88
2022-11-02T22:51:36.899Z,101430.59
2022-11-02T22:54:08.484Z,101427.56
2022-11-02T22:56:36.988Z,101420.69
2022-11-02T22:59:06.053Z,101427.75
2022-11-02T23:01:36.103Z,101416.34
2022-11-02T23:04:04.740Z,101408.66
2022-11-02T23:06:33.165Z,101403.22
2022-11-02T23:09:02.232Z,101396.78
2022-11-02T23:11:33.649Z,101394.53
2022-11-02T23:14:03.834Z,101399.38
2022-11-02T23:16:34.434Z,101393.09
2022-11-02T23:19:27.209Z,101379.63
2022-11-02T23:22:14.936Z,101380.06
2022-11-02T23:25:02.306Z,101382.28
2022-11-02T23:27:32.409Z,101368.00
2022-11-02T23:30:18.085Z,101366.72
2022-11-02T23:32:46.264Z,101360.75
2022-11-02T23:35:31.703Z,101360.75
2022-11-02T23:38:04.455Z,101359.16
2022-11-02T23:40:33.394Z,101365.25
2022-11-02T23:43:03.196Z,101361.41
2022-11-02T23:45:31.354Z,101362.06
2022-11-02T23:48:00.723Z,101370.22
2022-11-02T23:50:49.030Z,101372.94
2022-11-02T23:53:36.119Z,101369.09
2022-11-02T23:56:22.998Z,101358.00
2022-11-02T23:59:06.701Z,101362.34
